Flight Track Log - Related Links

Times and Time Zones

All times are in EDT time to prevent confusion due to time zone crossing. See the TCF3471 flight status page for this flight to view local times or setup timezone preferences in your user account.

Time Position Orientation Groundspeed Altitude Reporting Facility
EDT Latitude Longitude Course Direction KTS MPH feet Rate Location/Type
Sun 01:12:24 PM 41.9333 -87.8667 90° East 205 236 2,300  Level Chicago TRACON
Sun 01:13:14 PM 41.9369 -87.8050 85° East 249 287 4,000 1,446 Climbing Chicago Center
Sun 01:14:00 PM 42.0473 -87.3969 83° East  Level FlightAware Approximate
Sun 01:14:16 PM 41.9456 -87.7008 84° East 276 318 5,000  Level Chicago Center
Sun 01:15:00 PM 42.0652 -87.2685 78° East  Level FlightAware Approximate
Sun 01:15:17 PM 41.9708 -87.5956 72° East 298 343 8,200  Level Chicago Center
Sun 01:16:00 PM 42.0849 -87.1405 77° East  Level FlightAware Approximate
Sun 01:16:19 PM 42.0042 -87.4703 70° East 301 346 11,600  Level Chicago Center
Sun 01:17:00 PM 42.1000 -87.0120 90° East  Level FlightAware Approximate
Sun 01:17:21 PM 42.0128 -87.3456 85° East 339 390 13,800  Level Chicago Center
Sun 01:18:23 PM 42.0125 -87.2192 90° East 340 391 16,700 2,419 Climbing Chicago Center
Sun 01:19:25 PM 42.0136 -87.0908 89° East 342 394 18,800 1,968 Climbing Chicago Center
Sun 01:20:28 PM 42.0136 -86.9533 90° East 361 415 20,800 1,824 Climbing Chicago Center
Sun 01:21:30 PM 42.0136 -86.7808 90° East 381 438 22,600 1,065 Climbing Chicago Center
Sun 01:22:32 PM 42.0144 -86.6586 89° East 391 450 23,000 194 Climbing Chicago Center
Sun 01:23:34 PM 42.0147 -86.4842 90° East 390 449 23,000 726 Level Chicago Center
Sun 01:24:36 PM 42.0139 -86.3378 90° East 390 449 24,500 1,597 Climbing Chicago Center
Sun 01:25:38 PM 42.0142 -86.1900 90° East 395 455 26,300 1,500 Climbing Chicago Center
Sun 01:26:40 PM 42.0142 -86.0389 90° East 400 460 27,600 1,258 Climbing Chicago Center
Sun 01:27:42 PM 42.0133 -85.8844 90° East 409 471 28,900 1,306 Climbing Chicago Center
Sun 01:28:44 PM 42.0119 -85.7100 91° East 416 479 30,300 1,220 Climbing Chicago Center
Sun 01:29:45 PM 42.0108 -85.5517 90° East 423 487 31,400 1,220 Climbing Chicago Center
Sun 01:30:47 PM 42.0094 -85.3950 91° East 423 487 32,800 1,210 Climbing Chicago Center
Sun 01:31:49 PM 42.0083 -85.2408 91° East 415 478 33,900 1,016 Climbing Chicago Center
Sun 01:32:51 PM 42.0064 -85.0867 91° East 417 480 34,900 532 Climbing Chicago Center
Sun 01:33:53 PM 42.0042 -84.9011 91° East 410 472 35,000 48 Climbing Chicago Center
Sun 01:34:55 PM 42.0019 -84.7500 91° East 407 468 35,000  Level Chicago Center
Sun 01:35:57 PM 42.0000 -84.6000 91° East 410 472 35,000  Level Chicago Center
Sun 01:36:59 PM 41.9967 -84.4478 92° East 410 472 35,000  Level Chicago Center
Sun 01:37:35 PM 41.9978 -84.3581 89° East 405 466 35,000  Level Cleveland Center
Sun 01:38:35 PM 41.9886 -84.1956 94° East 405 466 35,000  Level Cleveland Center
Sun 01:39:35 PM 41.9847 -84.0444 92° East 405 466 35,000  Level Cleveland Center
Sun 01:40:35 PM 41.9811 -83.8906 92° East 405 466 35,000  Level Cleveland Center
Sun 01:41:35 PM 41.9769 -83.7394 92° East 405 466 35,000  Level Cleveland Center
Sun 01:42:35 PM 41.9722 -83.6025 93° East 405 466 35,000  Level Cleveland Center
Sun 01:43:35 PM 41.9700 -83.4542 91° East 405 466 35,000  Level Cleveland Center
Sun 01:44:35 PM 41.9653 -83.3006 92° East 405 466 35,000  Level Cleveland Center
Sun 01:45:35 PM 41.9606 -83.1467 92° East 405 466 35,000  Level Cleveland Center
Sun 01:46:35 PM 41.9575 -82.9986 92° East 405 466 35,000  Level Cleveland Center
Sun 01:47:35 PM 41.9522 -82.8447 93° East 405 466 35,000  Level Cleveland Center
Sun 01:48:35 PM 41.9489 -82.6911 92° East 405 466 35,000  Level Cleveland Center
Sun 01:49:35 PM 41.9411 -82.5372 94° East 405 466 35,000  Level Cleveland Center
Sun 01:50:35 PM 41.9375 -82.3864 92° East 405 466 35,000  Level Cleveland Center
Sun 01:51:35 PM 41.9314 -82.2356 93° East 405 466 35,000  Level Cleveland Center
Sun 01:52:35 PM 41.9253 -82.0650 93° East 405 466 35,000  Level Cleveland Center
Sun 01:53:35 PM 41.9189 -81.9142 93° East 405 466 35,000  Level Cleveland Center
Sun 01:54:35 PM 41.9122 -81.7606 93° East 405 466 35,000  Level Cleveland Center
Sun 01:55:35 PM 41.8989 -81.6264 98° East 405 466 35,000  Level Cleveland Center
Sun 01:56:35 PM 41.8856 -81.4728 97° East 405 466 35,000  Level Cleveland Center
Sun 01:57:35 PM 41.8722 -81.3222 97° East 405 466 35,000  Level Cleveland Center
Sun 01:58:35 PM 41.8564 -81.1686 98° East 410 472 35,000  Level Cleveland Center
Sun 01:59:35 PM 41.8425 -81.0125 97° East 410 472 35,000  Level Cleveland Center
Sun 02:00:35 PM 41.8264 -80.8478 97° East 410 472 35,000  Level Cleveland Center
Sun 02:01:35 PM 41.8119 -80.6947 97° East 410 472 35,000  Level Cleveland Center
Sun 02:02:35 PM 41.7975 -80.5414 97° East 410 472 35,000  Level Cleveland Center
Sun 02:03:35 PM 41.7825 -80.3911 98° East 410 472 35,000  Level Cleveland Center
Sun 02:04:35 PM 41.7678 -80.2353 97° East 410 472 35,000  Level Cleveland Center
Sun 02:05:35 PM 41.7506 -80.0850 99° East 410 472 35,000  Level Cleveland Center
Sun 02:06:35 PM 41.7331 -79.9319 99° East 410 472 35,000  Level Cleveland Center
Sun 02:07:35 PM 41.7194 -79.7792 97° East 410 472 35,000  Level Cleveland Center
Sun 02:08:35 PM 41.7039 -79.6431 99° East 410 472 35,000  Level Cleveland Center
Sun 02:09:35 PM 41.6858 -79.4739 98° East 410 472 35,000  Level Cleveland Center
Sun 02:10:35 PM 41.6697 -79.3239 98° East 410 472 35,000  Level Cleveland Center
Sun 02:11:35 PM 41.6533 -79.1714 98° East 410 472 35,000  Level Cleveland Center
Sun 02:12:35 PM 41.6367 -79.0161 98° East 410 472 35,000  Level Cleveland Center
Sun 02:13:35 PM 41.6200 -78.8639 98° East 410 472 35,000  Level Cleveland Center
Sun 02:14:35 PM 41.6008 -78.7089 99° East 410 472 35,000  Level Cleveland Center
Sun 02:16:40 PM 41.5653 -78.4100 99° East 406 467 35,000 -162 Level New York Center
Sun 02:17:40 PM 41.5458 -78.2553 99° East 417 480 34,500 -793 Descending New York Center
Sun 02:18:41 PM 41.5286 -78.0981 98° East 417 480 33,400 -1,140 Descending New York Center
Sun 02:19:41 PM 41.5092 -77.9408 99° East 417 480 32,200 -1,210 Descending New York Center
Sun 02:20:40 PM 41.4875 -77.7806 100° East 423 487 31,000 -1,160 Descending New York Center
Sun 02:21:40 PM 41.4653 -77.6258 101° East 428 493 29,900 -1,140 Descending New York Center
Sun 02:22:41 PM 41.4428 -77.4686 101° East 434 499 28,700 -1,261 Descending New York Center
Sun 02:23:39 PM 41.4178 -77.3194 103° East 428 493 27,400 -1,210 Descending New York Center
Sun 02:24:40 PM 41.3950 -77.1678 101° East 418 481 26,300 -1,150 Descending New York Center
Sun 02:25:39 PM 41.3736 -77.0192 101° East 418 481 25,100 -1,160 Descending New York Center
Sun 02:26:39 PM 41.3519 -76.8733 101° East 413 475 24,000 -1,140 Descending New York Center
Sun 02:27:40 PM 41.3242 -76.7272 104° East 413 475 22,800 -1,150 Descending New York Center
Sun 02:28:39 PM 41.2872 -76.5886 109° East 407 468 21,700 -1,109 Descending New York Center
Sun 02:29:39 PM 41.2500 -76.4531 110° East 395 455 20,600 -1,041 Descending New York Center
Sun 02:30:40 PM 41.2147 -76.3203 109° East 395 455 19,600 -1,091 Descending New York Center
Sun 02:31:40 PM 41.1775 -76.1794 109° East 378 435 18,400 -1,059 Descending New York Center
Sun 02:32:39 PM 41.1436 -76.0528 110° East 373 429 17,500 -1,082 Descending New York Center
Sun 02:33:42 PM 41.1111 -75.9400 111° Southeast 363 418 16,200 -1,250 Descending New York Center
Sun 02:34:39 PM 41.0808 -75.8194 108° East 352 405 15,000 -1,271 Descending New York Center
Sun 02:35:40 PM 41.0425 -75.6900 111° Southeast 347 399 13,700 -984 Descending New York Center
Sun 02:36:41 PM 41.0119 -75.5722 109° East 342 394 13,000 -347 Descending New York Center
Sun 02:37:41 PM 40.9792 -75.4572 111° Southeast 337 388 13,000  Level New York Center
Sun 02:38:40 PM 40.9497 -75.3536 111° Southeast 337 388 13,000 -1,109 Level New York Center
Sun 02:39:40 PM 40.9131 -75.2275 111° Southeast 337 388 10,800 -1,736 Descending New York Center
Sun 02:40:41 PM 40.8856 -75.1214 109° East 324 373 9,500 -1,311 Descending New York Center
Sun 02:41:39 PM 40.8558 -75.0208 111° Southeast 300 345 8,200 -1,271 Descending New York Center
Sun 02:42:39 PM 40.8300 -74.9314 111° Southeast 295 339 7,000 -595 Descending New York Center
Sun 02:43:40 PM 40.8044 -74.8283 108° East 295 339 7,000 -450 Level New York Center
Sun 02:44:39 PM 40.7975 -74.7211 95° East 288 331 6,100 -504 Descending New York Center
Sun 02:45:39 PM 40.8378 -74.6411 56° Northeast 267 307 6,000 -50 Descending New York Center
Sun 02:46:40 PM 40.8847 -74.5422 58° Northeast 286 329 6,000 -347 Level New York Center
Sun 02:47:40 PM 40.9167 -74.4561 64° Northeast 285 328 5,300 -504 Descending New York Center
Sun 02:48:39 PM 40.9408 -74.3475 74° East 273 314 5,000 -403 Descending New York Center
Sun 02:49:39 PM 40.9456 -74.2544 86° East 278 320 4,500 -496 Descending New York Center
Sun 02:50:40 PM 40.9253 -74.1628 106° East 261 300 4,000 -397 Descending New York Center
Sun 02:51:40 PM 40.8711 -74.0914 135° Southeast 245 282 3,700 -446 Descending New York Center
Sun 02:52:41 PM 40.8236 -74.0783 168° South 178 205 3,100 -590 Descending New York Center

Login

Don't have an account? Register now (free) for customized features, flight alerts, and more!